createdAt,value
2018-11-20T00:01:09.291Z,20.10
2018-11-20T00:04:15.869Z,22.87
2018-11-20T00:07:22.411Z,24.97
2018-11-20T00:10:28.983Z,24.73
2018-11-20T00:13:35.526Z,21.50
2018-11-20T00:16:42.155Z,21.80
2018-11-20T00:19:48.727Z,22.70
2018-11-20T00:22:55.316Z,23.03
2018-11-20T00:25:52.520Z,22.67
2018-11-20T00:28:59.130Z,25.10
2018-11-20T00:32:05.709Z,23.20
2018-11-20T00:35:12.266Z,23.53
2018-11-20T00:38:18.815Z,22.00
2018-11-20T00:41:25.391Z,20.03
2018-11-20T00:44:31.961Z,22.20
2018-11-20T00:47:38.523Z,20.50
2018-11-20T00:50:38.945Z,22.03
2018-11-20T00:53:26.297Z,22.93
2018-11-20T00:56:43.778Z,22.93
2018-11-20T00:59:51.399Z,22.30
2018-11-20T01:02:58.030Z,21.30
2018-11-20T01:06:04.589Z,23.13
2018-11-20T01:09:11.129Z,21.73
2018-11-20T01:12:17.714Z,21.57
2018-11-20T01:15:24.393Z,21.77
2018-11-20T01:18:30.984Z,22.83
2018-11-20T01:21:37.544Z,21.43
2018-11-20T01:24:44.115Z,22.63
2018-11-20T01:27:50.732Z,23.03
2018-11-20T01:30:57.297Z,23.63
2018-11-20T01:34:03.539Z,22.30
2018-11-20T01:37:10.117Z,23.10
2018-11-20T01:40:16.731Z,23.33
2018-11-20T01:43:23.397Z,24.97
2018-11-20T01:46:29.941Z,22.53
2018-11-20T01:49:36.520Z,24.00
2018-11-20T01:52:43.147Z,21.77
2018-11-20T01:55:49.721Z,22.40
2018-11-20T01:58:56.383Z,22.97
2018-11-20T02:02:02.957Z,21.77
2018-11-20T02:05:04.001Z,23.13
2018-11-20T02:08:10.608Z,22.43
2018-11-20T02:11:17.185Z,22.83
2018-11-20T02:14:45.726Z,23.57
2018-11-20T02:18:03.425Z,23.30
2018-11-20T02:21:10.005Z,20.37
2018-11-20T02:24:16.574Z,22.40
2018-11-20T02:27:23.129Z,19.90
2018-11-20T02:30:29.715Z,21.80
2018-11-20T02:33:36.283Z,20.03
2018-11-20T02:36:42.828Z,19.67
2018-11-20T02:39:49.481Z,21.60
2018-11-20T02:42:56.096Z,19.33
2018-11-20T02:46:02.638Z,20.27
2018-11-20T02:49:09.256Z,19.63
2018-11-20T02:52:15.808Z,22.17
2018-11-20T02:55:22.376Z,20.37
2018-11-20T02:58:28.929Z,23.93
2018-11-20T03:01:35.497Z,22.27
2018-11-20T03:04:42.109Z,23.77
2018-11-20T03:07:48.666Z,19.73
2018-11-20T03:10:55.245Z,21.60
2018-11-20T03:14:01.787Z,21.23
2018-11-20T03:17:08.422Z,22.10
2018-11-20T03:20:14.993Z,21.20
2018-11-20T03:23:21.534Z,21.33
2018-11-20T03:26:29.021Z,21.63
2018-11-20T03:29:54.763Z,20.13
2018-11-20T03:33:01.336Z,20.67
2018-11-20T03:36:08.003Z,19.90
2018-11-20T03:39:14.439Z,20.50
2018-11-20T03:42:21.060Z,21.23
2018-11-20T03:45:08.477Z,20.80
2018-11-20T03:48:15.029Z,22.07
2018-11-20T03:51:21.610Z,22.20
2018-11-20T03:54:28.170Z,20.87
2018-11-20T03:57:34.764Z,20.00
2018-11-20T04:00:41.346Z,20.60
2018-11-20T04:03:47.927Z,22.20
2018-11-20T04:06:47.077Z,20.73
2018-11-20T04:09:41.775Z,21.63
2018-11-20T04:12:46.884Z,19.53
2018-11-20T04:15:46.622Z,21.83
2018-11-20T04:18:41.913Z,21.47
2018-11-20T04:21:41.475Z,22.07
2018-11-20T04:24:40.692Z,21.37
2018-11-20T04:27:40.567Z,21.47
2018-11-20T04:30:29.511Z,21.77
2018-11-20T04:33:28.756Z,21.97
2018-11-20T04:36:28.278Z,23.10
2018-11-20T04:39:22.096Z,20.93
2018-11-20T04:42:15.956Z,19.70
2018-11-20T04:45:10.789Z,18.27
2018-11-20T04:48:15.786Z,20.20
2018-11-20T04:51:05.742Z,20.27
2018-11-20T04:54:10.834Z,20.50
2018-11-20T04:57:01.302Z,20.50
2018-11-20T05:00:00.995Z,20.87
2018-11-20T05:02:59.876Z,22.63
2018-11-20T05:05:59.602Z,21.47
2018-11-20T05:08:58.764Z,22.17
2018-11-20T05:11:50.413Z,19.80
2018-11-20T05:14:47.550Z,21.83
2018-11-20T05:17:54.114Z,20.47
2018-11-20T05:21:00.669Z,21.50
2018-11-20T05:23:48.129Z,20.73
2018-11-20T05:26:54.714Z,19.07
2018-11-20T05:30:01.289Z,22.17
2018-11-20T05:32:58.235Z,23.27
2018-11-20T05:36:04.786Z,22.70
2018-11-20T05:39:29.679Z,21.73
2018-11-20T05:42:36.889Z,19.90
2018-11-20T05:45:46.924Z,22.37
2018-11-20T05:52:45.357Z,22.43
2018-11-20T05:58:55.283Z,19.87
2018-11-20T06:01:43.789Z,20.40
2018-11-20T06:04:49.419Z,22.23
2018-11-20T06:10:53.520Z,21.97
2018-11-20T06:13:52.466Z,24.40
2018-11-20T06:16:52.399Z,24.37
2018-11-20T06:19:52.268Z,25.27
2018-11-20T06:22:45.355Z,22.73
2018-11-20T06:25:44.848Z,22.63
2018-11-20T06:31:46.675Z,19.67
2018-11-20T06:34:46.437Z,22.70
2018-11-20T06:37:45.971Z,22.00
2018-11-20T06:40:45.711Z,22.50
2018-11-20T06:43:45.401Z,21.33
2018-11-20T06:46:44.920Z,25.27
2018-11-20T06:49:44.779Z,23.57
2018-11-20T06:52:34.999Z,21.23
2018-11-20T06:55:41.197Z,21.23
2018-11-20T06:58:47.396Z,22.77
2018-11-20T07:01:53.615Z,22.73
2018-11-20T07:04:59.811Z,21.37
2018-11-20T07:11:35.676Z,19.63
2018-11-20T07:14:42.014Z,18.00
2018-11-20T07:17:48.359Z,20.37
2018-11-20T07:20:36.218Z,20.63
2018-11-20T07:23:41.279Z,18.73
2018-11-20T07:26:47.515Z,19.63
2018-11-20T07:29:53.758Z,19.47
2018-11-20T07:32:59.958Z,19.87
2018-11-20T07:35:46.755Z,21.70
2018-11-20T07:38:47.569Z,25.77
2018-11-20T07:41:52.502Z,21.73
2018-11-20T07:44:58.722Z,26.80
2018-11-20T07:48:07.848Z,22.43
2018-11-20T07:51:17.106Z,21.40
2018-11-20T07:54:23.489Z,23.83
2018-11-20T07:57:29.796Z,24.07
2018-11-20T08:00:36.608Z,22.77
2018-11-20T08:03:41.111Z,25.83
2018-11-20T08:06:47.795Z,21.57
2018-11-20T08:09:54.001Z,22.70
2018-11-20T08:13:00.253Z,22.97
2018-11-20T08:16:06.611Z,23.77
2018-11-20T08:19:12.715Z,20.40
2018-11-20T08:22:19.461Z,23.63
2018-11-20T08:25:19.319Z,22.87
2018-11-20T08:28:25.462Z,20.50
2018-11-20T08:31:31.633Z,20.23
2018-11-20T08:34:37.972Z,21.53
2018-11-20T08:37:33.967Z,21.00
2018-11-20T08:40:40.233Z,22.17
2018-11-20T08:43:46.485Z,22.73
2018-11-20T08:46:54.185Z,26.20
2018-11-20T08:49:59.058Z,21.73
2018-11-20T08:53:05.256Z,22.80
2018-11-20T09:01:15.278Z,18.10
2018-11-20T09:04:14.300Z,21.03
2018-11-20T09:07:14.242Z,51.77
2018-11-20T09:10:09.097Z,28.10
2018-11-20T09:13:04.286Z,21.53
2018-11-20T09:15:58.998Z,22.23
2018-11-20T09:18:45.715Z,25.77
2018-11-20T09:21:55.031Z,22.43
2018-11-20T09:25:02.788Z,21.43
2018-11-20T09:28:09.885Z,18.30
2018-11-20T09:31:14.104Z,21.63
2018-11-20T09:34:20.351Z,19.53
2018-11-20T09:37:26.505Z,17.20
2018-11-20T09:40:55.727Z,18.53
2018-11-20T09:44:21.438Z,15.53
2018-11-20T09:47:27.687Z,17.37
2018-11-20T09:50:34.487Z,17.83
2018-11-20T09:53:42.045Z,18.00
2018-11-20T09:56:51.740Z,18.07
2018-11-20T09:59:56.129Z,15.73
2018-11-20T10:03:06.477Z,21.97
2018-11-20T10:05:58.780Z,18.03
2018-11-20T10:09:04.970Z,16.40
2018-11-20T10:12:14.247Z,16.93
2018-11-20T10:15:20.446Z,15.60
2018-11-20T10:18:26.642Z,16.47
2018-11-20T10:21:29.798Z,20.07
2018-11-20T10:24:36.126Z,17.27
2018-11-20T10:27:47.799Z,19.80
2018-11-20T10:31:13.851Z,17.87
2018-11-20T10:34:20.072Z,18.37
2018-11-20T10:40:38.333Z,19.33
2018-11-20T10:43:44.526Z,20.17
2018-11-20T10:46:50.703Z,21.63
2018-11-20T10:49:59.354Z,18.70
2018-11-20T10:53:05.616Z,17.90
2018-11-20T10:56:11.897Z,18.83
2018-11-20T10:59:18.167Z,20.07
2018-11-20T11:02:24.353Z,19.37
2018-11-20T11:05:40.630Z,17.37
2018-11-20T11:08:46.888Z,18.90
2018-11-20T11:11:54.129Z,17.07
2018-11-20T11:15:00.606Z,18.10
2018-11-20T11:18:00.940Z,17.97
2018-11-20T11:20:50.945Z,18.30
2018-11-20T11:24:01.462Z,18.20
2018-11-20T11:27:03.459Z,18.83
2018-11-20T11:30:11.703Z,17.03
2018-11-20T11:33:24.148Z,17.40
2018-11-20T11:36:24.242Z,17.13
2018-11-20T11:39:33.288Z,17.40
2018-11-20T11:42:36.710Z,17.77
2018-11-20T11:49:08.739Z,16.80
2018-11-20T11:52:06.429Z,17.53
2018-11-20T11:55:12.697Z,16.83
2018-11-20T11:58:18.944Z,14.27
2018-11-20T12:01:26.287Z,14.30
2018-11-20T12:04:13.128Z,15.07
2018-11-20T12:07:22.762Z,16.93
2018-11-20T12:16:17.686Z,14.63
2018-11-20T12:19:16.687Z,14.33
2018-11-20T12:22:15.897Z,13.43
2018-11-20T12:25:17.715Z,13.07
2018-11-20T12:28:20.156Z,12.03
2018-11-20T12:31:19.591Z,12.63
2018-11-20T12:34:19.274Z,11.93
2018-11-20T12:37:18.611Z,12.53
2018-11-20T12:40:17.611Z,14.73
2018-11-20T12:43:18.257Z,12.37
2018-11-20T12:46:16.456Z,13.87
2018-11-20T12:49:18.762Z,14.63
2018-11-20T12:52:15.699Z,12.93
2018-11-20T12:55:15.449Z,12.50
2018-11-20T12:57:59.023Z,16.05
2018-11-20T13:04:08.543Z,13.53
2018-11-20T13:07:06.409Z,14.97
2018-11-20T13:09:47.196Z,14.60
2018-11-20T13:12:38.583Z,13.44
2018-11-20T13:15:44.818Z,13.77
2018-11-20T13:18:54.392Z,11.93
2018-11-20T13:21:57.313Z,15.17
2018-11-20T13:25:03.502Z,12.73
2018-11-20T13:28:09.721Z,15.67
2018-11-20T13:31:15.982Z,13.73
2018-11-20T13:34:20.819Z,14.50
2018-11-20T13:37:21.568Z,14.93
2018-11-20T13:40:48.500Z,11.80
2018-11-20T13:43:51.920Z,10.53
2018-11-20T13:46:57.128Z,9.50
2018-11-20T13:50:04.351Z,11.13
2018-11-20T13:53:09.546Z,8.27
2018-11-20T13:56:15.747Z,9.70
2018-11-20T13:59:21.927Z,9.93
2018-11-20T14:02:28.130Z,7.90
2018-11-20T14:05:36.432Z,10.77
2018-11-20T14:08:33.758Z,9.03
2018-11-20T14:11:28.035Z,9.13
2018-11-20T14:14:34.304Z,9.80
2018-11-20T14:17:42.602Z,9.93
2018-11-20T14:20:48.840Z,9.73
2018-11-20T14:23:55.116Z,13.10
2018-11-20T14:27:01.279Z,12.80
2018-11-20T14:30:07.501Z,12.53
2018-11-20T14:33:13.740Z,12.57
2018-11-20T14:36:19.991Z,9.97
2018-11-20T14:39:22.963Z,8.33
2018-11-20T14:42:32.213Z,7.20
2018-11-20T14:45:28.113Z,6.77
2018-11-20T14:48:13.192Z,12.07
2018-11-20T14:51:19.549Z,11.60
2018-11-20T14:54:37.867Z,11.87
2018-11-20T14:57:46.525Z,10.47
2018-11-20T15:00:50.459Z,8.60
2018-11-20T15:03:56.746Z,8.90
2018-11-20T15:07:02.957Z,15.23
2018-11-20T15:10:07.632Z,16.40
2018-11-20T15:13:12.495Z,16.97
2018-11-20T15:16:18.700Z,13.37
2018-11-20T15:19:24.904Z,16.47
2018-11-20T15:22:33.665Z,13.33
2018-11-20T15:25:42.699Z,12.23
2018-11-20T15:28:48.893Z,13.83
2018-11-20T15:31:55.190Z,13.27
2018-11-20T15:35:01.336Z,10.87
2018-11-20T15:38:07.770Z,11.40
2018-11-20T15:41:13.949Z,11.30
2018-11-20T15:44:20.167Z,11.50
2018-11-20T15:47:26.384Z,14.13
2018-11-20T15:50:32.663Z,15.47
2018-11-20T15:53:39.261Z,11.90
2018-11-20T15:56:45.476Z,16.97
2018-11-20T15:59:56.023Z,18.40
2018-11-20T16:03:00.379Z,14.90
2018-11-20T16:06:02.687Z,13.20
2018-11-20T16:09:08.968Z,12.10
2018-11-20T16:12:15.100Z,9.73
2018-11-20T16:15:21.314Z,9.03
2018-11-20T16:18:28.963Z,8.53
2018-11-20T16:21:34.876Z,7.43
2018-11-20T16:24:39.981Z,8.30
2018-11-20T16:27:46.191Z,7.50
2018-11-20T16:30:52.521Z,8.03
2018-11-20T16:33:58.719Z,9.27
2018-11-20T16:37:05.092Z,9.53
2018-11-20T16:40:14.964Z,9.40
2018-11-20T16:43:19.100Z,8.10
2018-11-20T16:46:29.450Z,7.33
2018-11-20T16:49:34.536Z,7.20
2018-11-20T16:52:42.453Z,7.00
2018-11-20T16:59:06.289Z,6.97
2018-11-20T17:02:01.690Z,7.63
2018-11-20T17:05:07.869Z,6.87
2018-11-20T17:08:14.471Z,7.10
2018-11-20T17:11:20.662Z,5.97
2018-11-20T17:14:17.967Z,6.63
2018-11-20T17:17:24.521Z,7.33
2018-11-20T17:20:30.692Z,6.47
2018-11-20T17:23:36.905Z,6.63
2018-11-20T17:26:43.116Z,7.07
2018-11-20T17:29:49.310Z,7.30
2018-11-20T17:32:58.029Z,6.20
2018-11-20T17:36:04.313Z,6.57
2018-11-20T17:39:10.482Z,6.87
2018-11-20T17:42:16.745Z,5.90
2018-11-20T17:45:18.693Z,6.07
2018-11-20T17:48:24.894Z,7.20
2018-11-20T17:51:31.140Z,6.87
2018-11-20T17:57:56.999Z,7.87
2018-11-20T18:00:57.878Z,7.00
2018-11-20T18:04:03.935Z,10.53
2018-11-20T18:06:58.955Z,9.40
2018-11-20T18:10:05.141Z,8.50
2018-11-20T18:13:11.411Z,9.10
2018-11-20T18:16:17.594Z,7.70
2018-11-20T18:19:23.923Z,10.70
2018-11-20T18:22:30.092Z,10.37
2018-11-20T18:25:36.601Z,16.93
2018-11-20T18:28:42.816Z,17.37
2018-11-20T18:31:48.973Z,14.53
2018-11-20T18:34:55.175Z,13.93
2018-11-20T18:38:01.390Z,12.03
2018-11-20T18:41:07.591Z,10.13
2018-11-20T18:44:13.821Z,11.57
2018-11-20T18:47:20.020Z,10.03
2018-11-20T18:50:26.911Z,9.00
2018-11-20T18:53:33.106Z,19.50
2018-11-20T18:56:39.297Z,15.63
2018-11-20T18:59:45.485Z,13.60
2018-11-20T19:02:32.160Z,11.93
2018-11-20T19:05:38.373Z,11.30
2018-11-20T19:08:44.575Z,10.07
2018-11-20T19:11:50.891Z,8.67
2018-11-20T19:14:57.068Z,8.87
2018-11-20T19:18:03.211Z,7.77
2018-11-20T19:21:09.450Z,7.77
2018-11-20T19:24:15.662Z,8.00
2018-11-20T19:30:11.092Z,8.37
2018-11-20T19:33:07.897Z,8.30
2018-11-20T19:35:54.525Z,7.87
2018-11-20T19:39:00.729Z,7.97
2018-11-20T19:42:06.909Z,7.60
2018-11-20T19:45:13.337Z,6.50
2018-11-20T19:48:22.060Z,6.63
2018-11-20T19:51:28.315Z,5.93
2018-11-20T19:58:00.268Z,6.43
2018-11-20T20:01:06.473Z,7.27
2018-11-20T20:04:12.626Z,8.67
2018-11-20T20:07:18.841Z,8.43
2018-11-20T20:10:30.897Z,7.27
2018-11-20T20:13:31.862Z,7.73
2018-11-20T20:16:38.421Z,9.67
2018-11-20T20:19:46.618Z,8.10
2018-11-20T20:22:52.903Z,7.17
2018-11-20T20:25:39.550Z,7.33
2018-11-20T20:28:48.300Z,9.20
2018-11-20T20:31:54.464Z,9.03
2018-11-20T20:35:00.644Z,9.17
2018-11-20T20:37:47.288Z,7.60
2018-11-20T20:40:53.483Z,10.90
2018-11-20T20:47:34.165Z,6.70
2018-11-20T20:50:59.938Z,12.87
2018-11-20T20:54:12.302Z,8.77
2018-11-20T20:57:12.352Z,10.83
2018-11-20T21:00:18.585Z,9.07
2018-11-20T21:03:24.772Z,8.10
2018-11-20T21:06:31.071Z,9.20
2018-11-20T21:09:37.265Z,9.47
2018-11-20T21:12:43.506Z,9.67
2018-11-20T21:15:49.752Z,9.27
2018-11-20T21:18:55.959Z,13.30
2018-11-20T21:22:02.137Z,14.50
2018-11-20T21:25:08.400Z,15.03
2018-11-20T21:28:14.581Z,27.47
2018-11-20T21:31:14.625Z,26.83
2018-11-20T21:37:41.397Z,21.37
2018-11-20T21:41:07.112Z,18.07
2018-11-20T21:44:13.343Z,14.83
2018-11-20T21:47:19.549Z,14.50
2018-11-20T21:50:26.304Z,13.77
2018-11-20T21:53:32.478Z,13.20
2018-11-20T21:56:38.680Z,13.30
2018-11-20T22:00:01.670Z,13.40
2018-11-20T22:03:06.840Z,10.73
2018-11-20T22:06:13.141Z,10.90
2018-11-20T22:09:19.289Z,10.50
2018-11-20T22:12:25.481Z,10.27
2018-11-20T22:15:31.668Z,12.23
2018-11-20T22:18:37.879Z,21.37
2018-11-20T22:21:24.637Z,18.77
2018-11-20T22:24:30.949Z,17.37
2018-11-20T22:27:36.227Z,16.03
2018-11-20T22:30:37.608Z,16.10
2018-11-20T22:33:32.125Z,15.57
2018-11-20T22:36:38.331Z,12.17
2018-11-20T22:39:49.327Z,11.13
2018-11-20T22:42:56.709Z,9.23
2018-11-20T22:46:01.808Z,9.97
2018-11-20T22:49:08.054Z,10.77
2018-11-20T22:52:14.251Z,10.63
2018-11-20T22:55:20.458Z,16.67
2018-11-20T22:58:26.691Z,11.13
2018-11-20T23:01:32.898Z,13.43
2018-11-20T23:04:39.117Z,11.43
2018-11-20T23:07:45.349Z,9.50
2018-11-20T23:10:32.129Z,9.43
2018-11-20T23:13:18.730Z,7.67
2018-11-20T23:16:05.560Z,9.93
2018-11-20T23:18:52.222Z,9.83
2018-11-20T23:21:38.837Z,10.50
2018-11-20T23:24:25.461Z,13.10
2018-11-20T23:27:16.455Z,12.07
2018-11-20T23:29:59.032Z,11.07
2018-11-20T23:32:45.677Z,12.60
2018-11-20T23:35:32.300Z,13.57
2018-11-20T23:38:19.056Z,12.43
2018-11-20T23:41:05.867Z,11.47
2018-11-20T23:43:32.830Z,10.53
2018-11-20T23:46:19.474Z,9.90
2018-11-20T23:49:07.862Z,10.33
2018-11-20T23:51:56.897Z,11.50
2018-11-20T23:54:43.506Z,9.93
2018-11-20T23:57:30.249Z,10.90
